NDF19D ELLX-LIMC
Flight info
| Callsign | NDF19D |
|---|---|
| Flight time | 0h 52m |
| Altitude | 35000 |
| Route | GTQ2Q GTQ DCT DEVDI DCT RIPUS DCT GERSA DCT SOSON DCT DEGAD Z424 RIXUV RIXUV3E |
| Aircraft | A320/M-SDE3FGHIRWY/LB1 |
Departure
| Time | 2026-05-05 18:24 |
|---|---|
| Airport | Luxembourg-Findel International Airport (ELLX) |
Arrival
| Time | 2026-05-05 19:17 |
|---|---|
| Airport | Milan Malpensa International Airport (LIMC) |
| Time | Latitude | Longitude | Altitude | Speed | Heading |
|---|---|---|---|---|---|
| 2026-05-05 17:41 | 49.63191 | 6.21479 | 1230 ft | 0 kts | 240° |
| 2026-05-05 18:12 | 49.63193 | 6.21485 | 1229 ft | 3 kts | 240° |
| 2026-05-05 18:13 | 49.63204 | 6.21516 | 1230 ft | 3 kts | 239° |
| 2026-05-05 18:13 | 49.63218 | 6.21536 | 1230 ft | 4 kts | 168° |
| 2026-05-05 18:13 | 49.63240 | 6.21521 | 1230 ft | 3 kts | 150° |
| 2026-05-05 18:13 | 49.63244 | 6.21517 | 1230 ft | 0 kts | 150° |
| 2026-05-05 18:18 | 49.63242 | 6.21518 | 1230 ft | 1 kts | 150° |
| 2026-05-05 18:18 | 49.63226 | 6.21533 | 1230 ft | 5 kts | 150° |
| 2026-05-05 18:19 | 49.63188 | 6.21566 | 1230 ft | 8 kts | 150° |
| 2026-05-05 18:19 | 49.63137 | 6.21612 | 1229 ft | 10 kts | 150° |
| 2026-05-05 18:19 | 49.63068 | 6.21612 | 1226 ft | 14 kts | 231° |
| 2026-05-05 18:19 | 49.63024 | 6.21475 | 1227 ft | 14 kts | 244° |
| 2026-05-05 18:20 | 49.62980 | 6.21335 | 1230 ft | 14 kts | 244° |
| 2026-05-05 18:20 | 49.62940 | 6.21203 | 1233 ft | 14 kts | 244° |
| 2026-05-05 18:20 | 49.62893 | 6.21052 | 1233 ft | 17 kts | 244° |
| 2026-05-05 18:20 | 49.62839 | 6.20879 | 1248 ft | 17 kts | 245° |
| 2026-05-05 18:21 | 49.62779 | 6.20724 | 1247 ft | 18 kts | 226° |
| 2026-05-05 18:21 | 49.62676 | 6.20595 | 1247 ft | 20 kts | 221° |
| 2026-05-05 18:21 | 49.62573 | 6.20423 | 1241 ft | 24 kts | 229° |
| 2026-05-05 18:21 | 49.62466 | 6.20198 | 1222 ft | 24 kts | 240° |
| 2026-05-05 18:22 | 49.62386 | 6.19984 | 1209 ft | 24 kts | 240° |
| 2026-05-05 18:22 | 49.62306 | 6.19768 | 1197 ft | 19 kts | 240° |
| 2026-05-05 18:22 | 49.62252 | 6.19622 | 1189 ft | 19 kts | 240° |
| 2026-05-05 18:22 | 49.62185 | 6.19552 | 1185 ft | 11 kts | 156° |
| 2026-05-05 18:23 | 49.62138 | 6.19592 | 1190 ft | 7 kts | 151° |
| 2026-05-05 18:23 | 49.62093 | 6.19632 | 1190 ft | 7 kts | 142° |
| 2026-05-05 18:23 | 49.62096 | 6.19673 | 1193 ft | 1 kts | 63° |
| 2026-05-05 18:23 | 49.62132 | 6.19772 | 1200 ft | 36 kts | 60° |
| 2026-05-05 18:24 | 49.62356 | 6.20379 | 1228 ft | 93 kts | 60° |
| 2026-05-05 18:24 | 49.62765 | 6.21479 | 1224 ft | 141 kts | 60° |
| 2026-05-05 18:24 | 49.63308 | 6.22956 | 1406 ft | 165 kts | 61° |
| 2026-05-05 18:24 | 49.63878 | 6.24499 | 2065 ft | 165 kts | 61° |
| 2026-05-05 18:25 | 49.64451 | 6.26039 | 2673 ft | 165 kts | 61° |
| 2026-05-05 18:25 | 49.64781 | 6.27106 | 2998 ft | 171 kts | 78° |
| 2026-05-05 18:25 | 49.64318 | 6.29485 | 3332 ft | 192 kts | 138° |
| 2026-05-05 18:25 | 49.63215 | 6.30836 | 3546 ft | 213 kts | 144° |
| 2026-05-05 18:26 | 49.61983 | 6.32288 | 3843 ft | 233 kts | 144° |
| 2026-05-05 18:26 | 49.60695 | 6.33818 | 4246 ft | 241 kts | 143° |
| 2026-05-05 18:26 | 49.59359 | 6.35417 | 4920 ft | 249 kts | 144° |
| 2026-05-05 18:26 | 49.57938 | 6.37126 | 5465 ft | 264 kts | 144° |
| 2026-05-05 18:27 | 49.56475 | 6.38898 | 6269 ft | 270 kts | 145° |
| 2026-05-05 18:27 | 49.54858 | 6.40393 | 7015 ft | 273 kts | 158° |
| 2026-05-05 18:27 | 49.53114 | 6.41604 | 7815 ft | 276 kts | 158° |
| 2026-05-05 18:27 | 49.51375 | 6.42810 | 8616 ft | 279 kts | 158° |
| 2026-05-05 18:28 | 49.47784 | 6.45295 | 10153 ft | 287 kts | 158° |
| 2026-05-05 18:28 | 49.45888 | 6.46602 | 10389 ft | 310 kts | 158° |
| 2026-05-05 18:28 | 49.43843 | 6.48013 | 10544 ft | 333 kts | 158° |
| 2026-05-05 18:29 | 49.41678 | 6.49511 | 10848 ft | 348 kts | 158° |
| 2026-05-05 18:29 | 49.39449 | 6.51060 | 11415 ft | 353 kts | 158° |
| 2026-05-05 18:29 | 49.37204 | 6.52620 | 12054 ft | 357 kts | 158° |
| 2026-05-05 18:29 | 49.34952 | 6.54181 | 12690 ft | 360 kts | 158° |
| 2026-05-05 18:30 | 49.32652 | 6.55770 | 13337 ft | 363 kts | 158° |
| 2026-05-05 18:30 | 49.30334 | 6.57364 | 13938 ft | 367 kts | 158° |
| 2026-05-05 18:30 | 49.27992 | 6.58969 | 14510 ft | 369 kts | 158° |
| 2026-05-05 18:30 | 49.25633 | 6.60585 | 15068 ft | 372 kts | 158° |
| 2026-05-05 18:31 | 49.23265 | 6.62151 | 15600 ft | 374 kts | 162° |
| 2026-05-05 18:31 | 49.20761 | 6.63247 | 16130 ft | 376 kts | 168° |
| 2026-05-05 18:31 | 49.18208 | 6.64220 | 16680 ft | 378 kts | 168° |
| 2026-05-05 18:31 | 49.15633 | 6.65198 | 17246 ft | 380 kts | 168° |
| 2026-05-05 18:32 | 49.13057 | 6.66171 | 17846 ft | 382 kts | 168° |
| 2026-05-05 18:32 | 49.10473 | 6.67152 | 18396 ft | 384 kts | 167° |
| 2026-05-05 18:32 | 49.07865 | 6.68142 | 18860 ft | 388 kts | 167° |
| 2026-05-05 18:32 | 49.05264 | 6.69129 | 19359 ft | 390 kts | 167° |
| 2026-05-05 18:33 | 49.02614 | 6.70131 | 19875 ft | 393 kts | 167° |
| 2026-05-05 18:33 | 48.99947 | 6.71135 | 20372 ft | 395 kts | 166° |
| 2026-05-05 18:33 | 48.97337 | 6.72498 | 20843 ft | 398 kts | 157° |
| 2026-05-05 18:33 | 48.94796 | 6.74245 | 21300 ft | 401 kts | 157° |
| 2026-05-05 18:34 | 48.92277 | 6.75974 | 21748 ft | 403 kts | 157° |
| 2026-05-05 18:34 | 48.89707 | 6.77733 | 22194 ft | 405 kts | 156° |
| 2026-05-05 18:34 | 48.87127 | 6.79496 | 22653 ft | 406 kts | 157° |
| 2026-05-05 18:34 | 48.84546 | 6.81253 | 23161 ft | 407 kts | 156° |
| 2026-05-05 18:35 | 48.81955 | 6.83016 | 23580 ft | 408 kts | 156° |
| 2026-05-05 18:35 | 48.79393 | 6.84757 | 23951 ft | 410 kts | 156° |
| 2026-05-05 18:35 | 48.76781 | 6.86525 | 24304 ft | 412 kts | 156° |
| 2026-05-05 18:35 | 48.74163 | 6.88294 | 24643 ft | 414 kts | 156° |
| 2026-05-05 18:36 | 48.71522 | 6.90078 | 24979 ft | 416 kts | 156° |
| 2026-05-05 18:36 | 48.68867 | 6.91872 | 25321 ft | 418 kts | 156° |
| 2026-05-05 18:36 | 48.66203 | 6.93674 | 25662 ft | 420 kts | 156° |
| 2026-05-05 18:36 | 48.63529 | 6.95484 | 26012 ft | 422 kts | 156° |
| 2026-05-05 18:37 | 48.60837 | 6.97302 | 26339 ft | 424 kts | 156° |
| 2026-05-05 18:37 | 48.58123 | 6.99129 | 26668 ft | 426 kts | 156° |
| 2026-05-05 18:37 | 48.55442 | 7.00929 | 27032 ft | 427 kts | 156° |
| 2026-05-05 18:37 | 48.52727 | 7.02749 | 27510 ft | 426 kts | 156° |
| 2026-05-05 18:38 | 48.50017 | 7.04565 | 28017 ft | 424 kts | 156° |
| 2026-05-05 18:38 | 48.47321 | 7.06369 | 28510 ft | 423 kts | 156° |
| 2026-05-05 18:38 | 48.44631 | 7.08166 | 28989 ft | 422 kts | 156° |
| 2026-05-05 18:38 | 48.41943 | 7.09960 | 29486 ft | 421 kts | 156° |
| 2026-05-05 18:39 | 48.39261 | 7.11753 | 29955 ft | 420 kts | 156° |
| 2026-05-05 18:39 | 48.36595 | 7.13534 | 30355 ft | 419 kts | 156° |
| 2026-05-05 18:39 | 48.33960 | 7.15291 | 30762 ft | 419 kts | 157° |
| 2026-05-05 18:39 | 48.31289 | 7.17068 | 31165 ft | 418 kts | 157° |
| 2026-05-05 18:40 | 48.28630 | 7.18836 | 31587 ft | 417 kts | 157° |
| 2026-05-05 18:40 | 48.25974 | 7.20596 | 32006 ft | 417 kts | 157° |
| 2026-05-05 18:40 | 48.23320 | 7.22349 | 32413 ft | 416 kts | 157° |
| 2026-05-05 18:40 | 48.20668 | 7.24105 | 32793 ft | 415 kts | 158° |
| 2026-05-05 18:41 | 48.18049 | 7.25837 | 33125 ft | 417 kts | 158° |
| 2026-05-05 18:41 | 48.15386 | 7.27599 | 33448 ft | 418 kts | 158° |
| 2026-05-05 18:41 | 48.12728 | 7.29360 | 33868 ft | 417 kts | 158° |
| 2026-05-05 18:41 | 48.10070 | 7.31120 | 34201 ft | 416 kts | 158° |
| 2026-05-05 18:42 | 48.07447 | 7.32853 | 34500 ft | 416 kts | 159° |
| 2026-05-05 18:42 | 48.04799 | 7.34598 | 34758 ft | 416 kts | 159° |
| 2026-05-05 18:42 | 47.99437 | 7.38119 | 34843 ft | 427 kts | 159° |
| 2026-05-05 18:43 | 47.93940 | 7.41707 | 34845 ft | 433 kts | 159° |
| 2026-05-05 18:43 | 47.88402 | 7.45323 | 34860 ft | 434 kts | 159° |
| 2026-05-05 18:44 | 47.82862 | 7.48945 | 34863 ft | 434 kts | 159° |
| 2026-05-05 18:44 | 47.77365 | 7.52582 | 34867 ft | 436 kts | 155° |
| 2026-05-05 18:45 | 47.72473 | 7.57990 | 34860 ft | 444 kts | 136° |
| 2026-05-05 18:45 | 47.68666 | 7.65320 | 34850 ft | 448 kts | 130° |
| 2026-05-05 18:46 | 47.64992 | 7.72741 | 34854 ft | 449 kts | 130° |
| 2026-05-05 18:46 | 47.61277 | 7.80192 | 34865 ft | 449 kts | 130° |
| 2026-05-05 18:47 | 47.57557 | 7.87647 | 34877 ft | 450 kts | 130° |
| 2026-05-05 18:47 | 47.53852 | 7.95052 | 34889 ft | 450 kts | 130° |
| 2026-05-05 18:48 | 47.50118 | 8.02490 | 34892 ft | 450 kts | 131° |
| 2026-05-05 18:48 | 47.46365 | 8.09929 | 34894 ft | 451 kts | 131° |
| 2026-05-05 18:49 | 47.42623 | 8.17350 | 34900 ft | 452 kts | 131° |
| 2026-05-05 18:49 | 47.38857 | 8.24807 | 34905 ft | 453 kts | 131° |
| 2026-05-05 18:50 | 47.35077 | 8.32262 | 34887 ft | 453 kts | 131° |
| 2026-05-05 18:50 | 47.31285 | 8.39689 | 34899 ft | 453 kts | 131° |
| 2026-05-05 18:51 | 47.26993 | 8.46233 | 34882 ft | 442 kts | 149° |
| 2026-05-05 18:51 | 47.21584 | 8.50180 | 34890 ft | 429 kts | 168° |
| 2026-05-05 18:52 | 47.15747 | 8.51502 | 34896 ft | 424 kts | 178° |
| 2026-05-05 18:52 | 47.09899 | 8.52345 | 34923 ft | 425 kts | 178° |
| 2026-05-05 18:53 | 47.04001 | 8.53204 | 34934 ft | 425 kts | 179° |
| 2026-05-05 18:53 | 46.99110 | 8.53914 | 34942 ft | 424 kts | 179° |
| 2026-05-05 18:54 | 46.92274 | 8.54892 | 34952 ft | 424 kts | 179° |
| 2026-05-05 18:54 | 46.87388 | 8.55592 | 34967 ft | 423 kts | 179° |
| 2026-05-05 18:55 | 46.81548 | 8.56435 | 34986 ft | 422 kts | 179° |
| 2026-05-05 18:55 | 46.75690 | 8.57275 | 34970 ft | 422 kts | 180° |
| 2026-05-05 18:56 | 46.69830 | 8.58110 | 34356 ft | 424 kts | 180° |
| 2026-05-05 18:56 | 46.66902 | 8.58528 | 33729 ft | 422 kts | 180° |
| 2026-05-05 18:56 | 46.63980 | 8.58946 | 33050 ft | 421 kts | 180° |
| 2026-05-05 18:57 | 46.61070 | 8.59360 | 32386 ft | 419 kts | 180° |
| 2026-05-05 18:57 | 46.58204 | 8.59767 | 31754 ft | 418 kts | 180° |
| 2026-05-05 18:57 | 46.55298 | 8.60179 | 31068 ft | 418 kts | 180° |
| 2026-05-05 18:57 | 46.52396 | 8.60591 | 30396 ft | 418 kts | 180° |
| 2026-05-05 18:58 | 46.49519 | 8.60998 | 29690 ft | 419 kts | 180° |
| 2026-05-05 18:58 | 46.46618 | 8.61095 | 28930 ft | 414 kts | 189° |
| 2026-05-05 18:58 | 46.43771 | 8.60484 | 28189 ft | 411 kts | 197° |
| 2026-05-05 18:58 | 46.41071 | 8.59206 | 27461 ft | 406 kts | 206° |
| 2026-05-05 18:59 | 46.38579 | 8.57316 | 26890 ft | 401 kts | 213° |
| 2026-05-05 18:59 | 46.36248 | 8.55216 | 26375 ft | 396 kts | 213° |
| 2026-05-05 18:59 | 46.33907 | 8.53119 | 25721 ft | 394 kts | 213° |
| 2026-05-05 18:59 | 46.31574 | 8.51041 | 25094 ft | 391 kts | 212° |
| 2026-05-05 19:00 | 46.29155 | 8.49255 | 24450 ft | 390 kts | 203° |
| 2026-05-05 19:00 | 46.26580 | 8.48166 | 23793 ft | 391 kts | 193° |
| 2026-05-05 19:00 | 46.23866 | 8.47799 | 23068 ft | 393 kts | 183° |
| 2026-05-05 19:00 | 46.21141 | 8.48101 | 22413 ft | 391 kts | 178° |
| 2026-05-05 19:01 | 46.18439 | 8.48496 | 21768 ft | 388 kts | 178° |
| 2026-05-05 19:01 | 46.15748 | 8.48886 | 21139 ft | 386 kts | 178° |
| 2026-05-05 19:01 | 46.13109 | 8.49266 | 20526 ft | 384 kts | 178° |
| 2026-05-05 19:01 | 46.10483 | 8.49930 | 19953 ft | 384 kts | 169° |
| 2026-05-05 19:02 | 46.07946 | 8.51184 | 19396 ft | 383 kts | 163° |
| 2026-05-05 19:02 | 46.05450 | 8.52527 | 18854 ft | 381 kts | 163° |
| 2026-05-05 19:02 | 46.02979 | 8.53859 | 18449 ft | 376 kts | 163° |
| 2026-05-05 19:02 | 46.00577 | 8.55157 | 18326 ft | 361 kts | 163° |
| 2026-05-05 19:03 | 45.98270 | 8.56406 | 18192 ft | 347 kts | 164° |
| 2026-05-05 19:03 | 45.96051 | 8.57607 | 18063 ft | 334 kts | 164° |
| 2026-05-05 19:03 | 45.93908 | 8.58762 | 17912 ft | 323 kts | 164° |
| 2026-05-05 19:03 | 45.91846 | 8.59867 | 17669 ft | 317 kts | 164° |
| 2026-05-05 19:04 | 45.89844 | 8.61112 | 17559 ft | 315 kts | 155° |
| 2026-05-05 19:04 | 45.88023 | 8.62931 | 17144 ft | 324 kts | 146° |
| 2026-05-05 19:04 | 45.86272 | 8.64957 | 16628 ft | 321 kts | 146° |
| 2026-05-05 19:04 | 45.84552 | 8.66966 | 16145 ft | 317 kts | 145° |
| 2026-05-05 19:05 | 45.82846 | 8.68961 | 15634 ft | 314 kts | 145° |
| 2026-05-05 19:05 | 45.81144 | 8.70943 | 15168 ft | 316 kts | 145° |
| 2026-05-05 19:05 | 45.79433 | 8.72924 | 14808 ft | 314 kts | 145° |
| 2026-05-05 19:05 | 45.77733 | 8.74893 | 14279 ft | 314 kts | 145° |
| 2026-05-05 19:06 | 45.75994 | 8.76740 | 13788 ft | 308 kts | 154° |
| 2026-05-05 19:06 | 45.74144 | 8.78172 | 13298 ft | 304 kts | 155° |
| 2026-05-05 19:06 | 45.72282 | 8.79600 | 12848 ft | 302 kts | 155° |
| 2026-05-05 19:06 | 45.70427 | 8.81024 | 12422 ft | 300 kts | 155° |
| 2026-05-05 19:07 | 45.68588 | 8.82437 | 11888 ft | 299 kts | 155° |
| 2026-05-05 19:07 | 45.66792 | 8.83815 | 11424 ft | 295 kts | 155° |
| 2026-05-05 19:07 | 45.65007 | 8.85190 | 11160 ft | 284 kts | 154° |
| 2026-05-05 19:07 | 45.63317 | 8.86496 | 10902 ft | 271 kts | 155° |
| 2026-05-05 19:08 | 45.61643 | 8.87633 | 10576 ft | 263 kts | 165° |
| 2026-05-05 19:08 | 45.59880 | 8.88206 | 10333 ft | 259 kts | 172° |
| 2026-05-05 19:08 | 45.58116 | 8.88681 | 10083 ft | 257 kts | 172° |
| 2026-05-05 19:08 | 45.56364 | 8.89160 | 9900 ft | 255 kts | 171° |
| 2026-05-05 19:09 | 45.54617 | 8.89638 | 9715 ft | 256 kts | 171° |
| 2026-05-05 19:09 | 45.52869 | 8.90114 | 9435 ft | 255 kts | 171° |
| 2026-05-05 19:09 | 45.51126 | 8.90587 | 9153 ft | 254 kts | 171° |
| 2026-05-05 19:09 | 45.49397 | 8.91058 | 8897 ft | 251 kts | 171° |
| 2026-05-05 19:10 | 45.47701 | 8.91524 | 8702 ft | 245 kts | 171° |
| 2026-05-05 19:10 | 45.46019 | 8.91986 | 8312 ft | 245 kts | 171° |
| 2026-05-05 19:10 | 45.44372 | 8.92435 | 7937 ft | 244 kts | 171° |
| 2026-05-05 19:10 | 45.42710 | 8.92885 | 7557 ft | 242 kts | 171° |
| 2026-05-05 19:11 | 45.41040 | 8.93295 | 7021 ft | 246 kts | 178° |
| 2026-05-05 19:11 | 45.39354 | 8.92805 | 6404 ft | 252 kts | 208° |
| 2026-05-05 19:11 | 45.38055 | 8.91136 | 5856 ft | 255 kts | 237° |
| 2026-05-05 19:11 | 45.37500 | 8.88773 | 5461 ft | 250 kts | 260° |
| 2026-05-05 19:12 | 45.37368 | 8.86346 | 5106 ft | 243 kts | 275° |
| 2026-05-05 19:12 | 45.37953 | 8.84160 | 4846 ft | 237 kts | 308° |
| 2026-05-05 19:12 | 45.39155 | 8.82585 | 4670 ft | 239 kts | 322° |
| 2026-05-05 19:12 | 45.40500 | 8.81177 | 4515 ft | 240 kts | 323° |
| 2026-05-05 19:13 | 45.41863 | 8.79791 | 4374 ft | 241 kts | 324° |
| 2026-05-05 19:13 | 45.43327 | 8.78730 | 4220 ft | 234 kts | 346° |
| 2026-05-05 19:13 | 45.44913 | 8.78288 | 4049 ft | 230 kts | 351° |
| 2026-05-05 19:13 | 45.46487 | 8.77894 | 3768 ft | 229 kts | 350° |
| 2026-05-05 19:14 | 45.48038 | 8.77478 | 3473 ft | 223 kts | 349° |
| 2026-05-05 19:14 | 45.49518 | 8.77071 | 3184 ft | 215 kts | 350° |
| 2026-05-05 19:14 | 45.50962 | 8.76674 | 2900 ft | 208 kts | 350° |
| 2026-05-05 19:14 | 45.52363 | 8.76288 | 2655 ft | 203 kts | 351° |
| 2026-05-05 19:15 | 45.53741 | 8.75909 | 2360 ft | 200 kts | 351° |
| 2026-05-05 19:15 | 45.55100 | 8.75535 | 2078 ft | 198 kts | 351° |
| 2026-05-05 19:15 | 45.56428 | 8.75169 | 1809 ft | 188 kts | 351° |
| 2026-05-05 19:15 | 45.57642 | 8.74834 | 1544 ft | 167 kts | 350° |
| 2026-05-05 19:16 | 45.58715 | 8.74538 | 1317 ft | 149 kts | 350° |
| 2026-05-05 19:16 | 45.59705 | 8.74265 | 1112 ft | 142 kts | 349° |
| 2026-05-05 19:16 | 45.60666 | 8.74001 | 940 ft | 139 kts | 349° |
| 2026-05-05 19:16 | 45.61616 | 8.73738 | 768 ft | 139 kts | 348° |
| 2026-05-05 19:17 | 45.62456 | 8.73504 | 739 ft | 102 kts | 348° |
| 2026-05-05 19:17 | 45.62929 | 8.73373 | 736 ft | 46 kts | 349° |
| 2026-05-05 19:17 | 45.63136 | 8.73256 | 736 ft | 26 kts | 324° |
| 2026-05-05 19:17 | 45.63244 | 8.73104 | 736 ft | 17 kts | 305° |
| 2026-05-05 19:18 | 45.63318 | 8.72949 | 736 ft | 22 kts | 303° |
| 2026-05-05 19:18 | 45.63365 | 8.72851 | 736 ft | 10 kts | 304° |
| 2026-05-05 19:18 | 45.63402 | 8.72752 | 736 ft | 12 kts | 289° |
| 2026-05-05 19:18 | 45.63404 | 8.72617 | 736 ft | 15 kts | 260° |
| 2026-05-05 19:19 | 45.63385 | 8.72458 | 736 ft | 17 kts | 260° |
| 2026-05-05 19:19 | 45.63360 | 8.72279 | 737 ft | 19 kts | 258° |
| 2026-05-05 19:19 | 45.63336 | 8.72106 | 739 ft | 10 kts | 259° |
| 2026-05-05 19:19 | 45.63327 | 8.72043 | 738 ft | 0 kts | 259° |
| 2026-05-05 19:20 | 45.63324 | 8.72019 | 737 ft | 5 kts | 259° |
| 2026-05-05 19:21 | 45.63290 | 8.71970 | 737 ft | 10 kts | 185° |
| 2026-05-05 19:21 | 45.63213 | 8.71987 | 736 ft | 12 kts | 168° |
| 2026-05-05 19:21 | 45.63122 | 8.72011 | 737 ft | 14 kts | 169° |
| 2026-05-05 19:21 | 45.63019 | 8.72039 | 736 ft | 16 kts | 169° |
| 2026-05-05 19:22 | 45.62902 | 8.72071 | 737 ft | 18 kts | 169° |
| 2026-05-05 19:22 | 45.62770 | 8.72108 | 737 ft | 20 kts | 169° |
| 2026-05-05 19:22 | 45.62623 | 8.72148 | 737 ft | 21 kts | 169° |
| 2026-05-05 19:22 | 45.62487 | 8.72186 | 737 ft | 21 kts | 168° |
| 2026-05-05 19:23 | 45.62390 | 8.72200 | 737 ft | 12 kts | 205° |
| 2026-05-05 19:23 | 45.62361 | 8.72087 | 737 ft | 14 kts | 259° |
| 2026-05-05 19:23 | 45.62344 | 8.71962 | 736 ft | 10 kts | 259° |
| 2026-05-05 19:23 | 45.62293 | 8.71928 | 736 ft | 10 kts | 168° |
| 2026-05-05 19:24 | 45.62239 | 8.71949 | 736 ft | 5 kts | 141° |
| 2026-05-05 19:24 | 45.62243 | 8.72002 | 737 ft | 4 kts | 80° |
| 2026-05-05 19:24 | 45.62248 | 8.72041 | 737 ft | 2 kts | 79° |
| 2026-05-05 19:24 | 45.62249 | 8.72049 | 737 ft | 0 kts | 79° |